Time;durP1;ratioP1;P1;durP2;ratioP2;P2;SDS_P1;SDS_P2;PMS_P1;PMS_P2;Temp;Humidity;BMP_temperature;BMP_pressure;BME280_temperature;BME280_humidity;BME280_pressure;Samples;Min_cycle;Max_cycle;Signal;HPM_P1;HPM_P2
2023/09/18 00:00:39;;;;;;;3.00;2.70;;;;;;;18.70;100.00;100513.66;5016567;28;20022;-82
2023/09/18 00:03:04;;;;;;;2.77;2.57;;;;;;;18.70;100.00;100512.78;5015000;28;20026;-82
2023/09/18 00:05:30;;;;;;;2.60;2.40;;;;;;;18.66;100.00;100491.09;5016490;28;20037;-83
2023/09/18 00:07:56;;;;;;;2.40;2.20;;;;;;;18.65;100.00;100492.88;5016038;28;20018;-82
2023/09/18 00:10:21;;;;;;;3.17;2.80;;;;;;;18.64;100.00;100501.69;5014811;28;20513;-82
2023/09/18 00:12:46;;;;;;;2.97;2.50;;;;;;;18.59;100.00;100495.00;5016574;28;20026;-83
2023/09/18 00:15:12;;;;;;;2.60;2.40;;;;;;;18.56;100.00;100497.78;5015893;28;20100;-82
2023/09/18 00:17:37;;;;;;;2.47;2.27;;;;;;;18.56;100.00;100493.41;5015445;28;20030;-82
2023/09/18 00:20:06;;;;;;;2.67;2.47;;;;;;;18.52;100.00;100491.84;5016068;28;20108;-82
2023/09/18 00:22:34;;;;;;;2.85;2.40;;;;;;;18.53;100.00;100483.03;5015433;28;20029;-82
2023/09/18 00:25:01;;;;;;;3.63;2.65;;;;;;;18.50;100.00;100472.69;5014688;28;20022;-82
2023/09/18 00:27:26;;;;;;;;;;;;;;;18.51;100.00;100469.13;5015551;28;20042;-82
2023/09/18 00:29:51;;;;;;;3.13;2.63;;;;;;;18.49;100.00;100458.72;5015015;28;19983;-82
2023/09/18 00:32:17;;;;;;;2.50;2.30;;;;;;;18.48;100.00;100454.41;5014969;28;20479;-83
2023/09/18 00:34:42;;;;;;;3.50;2.50;;;;;;;18.48;100.00;100456.16;5015770;28;20061;-82
2023/09/18 00:37:07;;;;;;;3.47;2.70;;;;;;;18.45;100.00;100444.03;5014700;28;20030;-82
2023/09/18 00:39:32;;;;;;;2.87;2.50;;;;;;;18.46;100.00;100447.53;5015384;28;20386;-82
2023/09/18 00:41:58;;;;;;;3.00;2.43;;;;;;;18.45;100.00;100438.78;5015585;28;20029;-83
2023/09/18 00:44:26;;;;;;;2.97;2.40;;;;;;;18.44;100.00;100433.63;5013843;28;20520;-82
2023/09/18 00:46:52;;;;;;;3.22;2.40;;;;;;;18.44;100.00;100433.63;5015657;28;20037;-83
2023/09/18 00:49:18;;;;;;;2.40;2.20;;;;;;;18.42;100.00;100415.31;5014785;28;20390;-82
2023/09/18 00:51:44;;;;;;;3.13;2.60;;;;;;;18.39;100.00;100412.00;5014451;28;20030;-82
2023/09/18 00:54:11;;;;;;;3.17;2.80;;;;;;;18.42;100.00;100420.56;5014754;28;20026;-82
2023/09/18 00:56:36;;;;;;;3.58;2.70;;;;;;;18.43;100.00;100416.16;5014821;28;20049;-82
2023/09/18 00:59:05;;;;;;;3.43;2.93;;;;;;;18.39;100.00;100417.25;5014139;28;20030;-82
2023/09/18 01:01:31;;;;;;;4.72;3.50;;;;;;;18.44;100.00;100407.34;5014594;28;20026;-82
2023/09/18 01:03:57;;;;;;;5.70;3.90;;;;;;;18.41;100.00;100402.25;5014934;28;20072;-82
2023/09/18 01:06:27;;;;;;;6.43;4.38;;;;;;;18.40;100.00;100398.81;5013787;28;20030;-83
2023/09/18 01:08:54;;;;;;;5.30;3.50;;;;;;;18.39;100.00;100377.84;5014474;28;20109;-82
2023/09/18 01:11:30;;;;;;;4.13;3.25;;;;;;;18.41;100.00;100373.34;5014990;28;20060;-82
2023/09/18 01:14:20;;;;;;;4.68;3.20;;;;;;;18.42;100.00;100367.19;5014496;28;20471;-83
2023/09/18 01:16:54;;;;;;;3.60;2.78;;;;;;;18.43;100.00;100376.75;5014363;28;20498;-82
2023/09/18 01:19:47;;;;;;;4.10;3.10;;;;;;;18.41;100.00;100368.94;5013471;28;20025;-82
2023/09/18 01:22:22;;;;;;;3.63;3.03;;;;;;;18.40;100.00;100355.91;5014427;28;20072;-82
2023/09/18 01:24:48;;;;;;;4.57;3.40;;;;;;;18.42;100.00;100357.50;5014253;28;20061;-82
2023/09/18 01:27:18;;;;;;;4.75;3.50;;;;;;;18.45;100.00;100357.34;5012940;28;20044;-83
2023/09/18 01:29:45;;;;;;;5.03;3.47;;;;;;;18.46;100.00;100360.84;5014604;28;20512;-83
2023/09/18 01:32:10;;;;;;;;;;;;;;;18.46;100.00;100360.84;5014808;28;20493;-83
2023/09/18 01:34:41;;;;;;;4.43;3.10;;;;;;;18.45;100.00;100353.88;5013760;28;19914;-83
2023/09/18 01:37:09;;;;;;;3.55;3.03;;;;;;;18.47;100.00;100355.47;5014766;28;20017;-83
2023/09/18 01:39:35;;;;;;;3.72;3.10;;;;;;;18.47;100.00;100365.13;5014922;28;20039;-83
2023/09/18 01:42:05;;;;;;;3.47;3.10;;;;;;;18.47;100.00;100360.72;5013873;28;20018;-83
2023/09/18 01:44:31;;;;;;;3.33;2.63;;;;;;;18.42;100.00;100360.13;5014441;28;20491;-83
2023/09/18 01:47:02;;;;;;;3.15;2.70;;;;;;;18.50;100.00;100373.72;5014533;28;20113;-83
2023/09/18 01:49:39;;;;;;;2.40;2.20;;;;;;;18.51;100.00;100371.91;5013020;28;20033;-83
2023/09/18 01:52:06;;;;;;;2.42;2.22;;;;;;;18.51;100.00;100366.66;5014563;28;20034;-83
2023/09/18 01:54:32;;;;;;;2.40;2.20;;;;;;;18.50;100.00;100360.56;5013872;28;20026;-83
2023/09/18 01:56:58;;;;;;;2.88;2.58;;;;;;;18.50;100.00;100362.34;5013556;28;20053;-83
2023/09/18 01:59:23;;;;;;;2.30;2.10;;;;;;;18.52;100.00;100355.22;5014088;28;20075;-82
2023/09/18 02:01:50;;;;;;;2.45;2.25;;;;;;;18.52;100.00;100355.22;5013256;28;20483;-82
2023/09/18 02:04:15;;;;;;;2.17;1.98;;;;;;;18.51;100.00;100353.53;5014073;28;20025;-83
2023/09/18 02:06:41;;;;;;;1.90;1.80;;;;;;;18.53;100.00;100351.66;5013960;28;20058;-82
2023/09/18 02:09:10;;;;;;;1.90;1.80;;;;;;;18.54;100.00;100353.34;5013365;28;20100;-82
2023/09/18 02:11:40;;;;;;;1.92;1.80;;;;;;;18.55;100.00;100356.81;5013819;28;20045;-82
2023/09/18 02:14:06;;;;;;;2.00;1.90;;;;;;;18.53;100.00;100347.22;5014622;28;20389;-83
2023/09/18 02:16:43;;;;;;;1.95;1.85;;;;;;;18.56;100.00;100343.59;5014957;28;20108;-83
2023/09/18 02:19:09;;;;;;;1.90;1.80;;;;;;;18.56;100.00;100345.38;5013744;28;20029;-82
2023/09/18 02:21:35;;;;;;;1.65;1.55;;;;;;;18.57;100.00;100337.41;5015512;28;20022;-82
2023/09/18 02:24:01;;;;;;;1.60;1.50;;;;;;;18.58;100.00;100341.72;5013396;28;20348;-82
2023/09/18 02:26:27;;;;;;;2.70;1.70;;;;;;;18.59;100.00;100329.44;5013473;28;20339;-82
2023/09/18 02:28:54;;;;;;;1.70;1.60;;;;;;;18.59;100.00;100330.28;5013494;28;20447;-82
2023/09/18 02:31:20;;;;;;;;;;;;;;;18.61;100.00;100324.94;5013447;28;20030;-82
2023/09/18 02:33:46;;;;;;;1.75;1.65;;;;;;;18.61;100.00;100317.06;5013300;28;19913;-82
2023/09/18 02:36:12;;;;;;;2.20;2.00;;;;;;;18.60;100.00;100304.84;5013808;28;20026;-83
2023/09/18 02:38:37;;;;;;;2.50;2.30;;;;;;;18.59;100.00;100292.66;5012622;28;20033;-83
2023/09/18 02:41:03;;;;;;;2.57;2.23;;;;;;;18.58;100.00;100277.81;5013163;28;20157;-83
2023/09/18 02:43:28;;;;;;;2.40;2.20;;;;;;;18.60;100.00;100282.03;5013380;28;20021;-83
2023/09/18 02:45:53;;;;;;;2.33;2.10;;;;;;;18.59;100.00;100272.47;5012631;28;20062;-82
2023/09/18 02:48:19;;;;;;;2.83;2.10;;;;;;;18.61;100.00;100282.91;5013234;28;20025;-82
2023/09/18 02:50:45;;;;;;;2.03;1.90;;;;;;;18.60;100.00;100265.44;5014344;28;20112;-82
2023/09/18 02:53:21;;;;;;;1.98;1.88;;;;;;;18.60;100.00;100260.19;5013136;28;20395;-82
2023/09/18 02:55:49;;;;;;;1.80;1.70;;;;;;;18.59;100.00;100261.13;5012557;28;20070;-83
2023/09/18 02:58:16;;;;;;;1.92;1.83;;;;;;;18.58;100.00;100264.69;5012133;28;20116;-82
2023/09/18 03:00:45;;;;;;;2.05;1.92;;;;;;;18.57;100.00;100271.72;5012902;28;20033;-82
2023/09/18 03:03:11;;;;;;;2.20;2.00;;;;;;;18.53;100.00;100268.41;5013037;28;20037;-83
2023/09/18 03:05:37;;;;;;;2.60;2.20;;;;;;;18.48;100.00;100245.97;5012699;28;20022;-82
2023/09/18 03:08:03;;;;;;;3.35;2.65;;;;;;;18.48;100.00;100251.22;5013937;28;20052;-83
2023/09/18 03:10:35;;;;;;;3.73;2.57;;;;;;;18.46;100.00;100232.09;5017617;28;20474;-83
2023/09/18 03:13:04;;;;;;;2.53;2.33;;;;;;;18.45;100.00;100241.72;5015986;28;20022;-82
2023/09/18 03:15:30;;;;;;;2.60;2.40;;;;;;;18.45;100.00;100225.97;5016663;28;20050;-82
2023/09/18 03:17:56;;;;;;;5.55;3.40;;;;;;;18.44;100.00;100228.69;5017107;28;20540;-82
2023/09/18 03:20:26;;;;;;;4.18;3.30;;;;;;;18.47;100.00;100231.13;5016300;28;20091;-83
2023/09/18 03:22:53;;;;;;;3.05;2.60;;;;;;;18.44;100.00;100224.28;5016927;28;20021;-82
2023/09/18 03:25:18;;;;;;;2.70;2.50;;;;;;;18.47;100.00;100232.00;5016343;28;20029;-82
2023/09/18 03:27:44;;;;;;;3.17;2.20;;;;;;;18.46;100.00;100227.66;5016222;28;20029;-82
2023/09/18 03:30:12;;;;;;;2.40;2.20;;;;;;;18.49;100.00;100250.28;5016483;28;20033;-83
2023/09/18 03:32:38;;;;;;;2.45;2.25;;;;;;;18.49;100.00;100250.28;5016571;28;20477;-83
2023/09/18 03:35:03;;;;;;;2.63;2.43;;;;;;;18.46;100.00;100247.84;5016036;28;20105;-82
2023/09/18 03:37:29;;;;;;;2.88;2.42;;;;;;;18.39;100.00;100220.22;5016894;28;20382;-82
2023/09/18 03:39:54;;;;;;;2.10;2.00;;;;;;;18.47;100.00;100241.63;5016230;28;20025;-82
2023/09/18 03:42:19;;;;;;;2.30;2.10;;;;;;;18.48;100.00;100245.97;5017159;28;20026;-82
2023/09/18 03:44:44;;;;;;;2.63;2.27;;;;;;;18.46;100.00;100253.09;5016751;28;20046;-82
2023/09/18 03:47:10;;;;;;;3.47;2.60;;;;;;;18.49;100.00;100258.16;5015255;28;20386;-82
2023/09/18 03:49:35;;;;;;;5.23;3.20;;;;;;;18.51;100.00;100258.94;5015733;28;20030;-82
2023/09/18 03:52:00;;;;;;;7.43;3.60;;;;;;;18.53;100.00;100257.06;5016408;28;20028;-81
2023/09/18 03:54:25;;;;;;;5.90;3.70;;;;;;;18.57;100.00;100273.50;5015609;28;20021;-83
2023/09/18 03:56:53;;;;;;;7.40;4.13;;;;;;;18.57;100.00;100247.22;5015924;28;20050;-82
2023/09/18 03:59:19;;;;;;;8.18;4.55;;;;;;;18.61;100.00;100231.16;5015714;28;20045;-82
2023/09/18 04:01:45;;;;;;;7.03;4.20;;;;;;;18.65;100.00;100234.47;5015165;28;20471;-80
2023/09/18 04:04:10;;;;;;;6.45;4.10;;;;;;;18.65;100.00;100218.69;5016038;28;20475;-80
2023/09/18 04:06:46;;;;;;;4.80;3.77;;;;;;;18.67;100.00;100233.47;5016448;28;20100;-80
2023/09/18 04:09:11;;;;;;;5.18;3.78;;;;;;;18.67;100.00;100265.00;5015118;28;20054;-81
2023/09/18 04:11:37;;;;;;;5.10;3.47;;;;;;;18.67;100.00;100265.00;5016492;28;20157;-80
2023/09/18 04:14:03;;;;;;;3.30;3.00;;;;;;;18.69;100.00;100262.25;5015923;28;20540;-80
2023/09/18 04:16:30;;;;;;;6.37;3.87;;;;;;;18.64;100.00;100265.16;5014188;28;20037;-80
2023/09/18 04:18:56;;;;;;;5.68;3.60;;;;;;;18.68;100.00;100265.81;5015710;28;20045;-80
2023/09/18 04:21:21;;;;;;;6.03;3.70;;;;;;;18.65;100.00;100256.34;5014432;28;20056;-80
2023/09/18 04:23:47;;;;;;;8.97;4.37;;;;;;;18.67;100.00;100262.38;5013957;28;20033;-78
2023/09/18 04:26:15;;;;;;;7.17;4.20;;;;;;;18.64;100.00;100249.41;5013383;28;20030;-82
2023/09/18 04:28:41;;;;;;;6.22;4.20;;;;;;;18.68;100.00;100248.28;5015546;28;20541;-81
2023/09/18 04:31:07;;;;;;;5.63;4.13;;;;;;;18.68;100.00;100237.78;5014585;28;20033;-81
2023/09/18 04:33:32;;;;;;;5.47;3.97;;;;;;;18.67;100.00;100222.94;5015014;28;20440;-81
2023/09/18 04:35:58;;;;;;;5.43;4.30;;;;;;;18.69;100.00;100228.09;5015224;28;20054;-82
2023/09/18 04:38:23;;;;;;;5.40;3.70;;;;;;;18.67;100.00;100222.94;5014188;28;20391;-81
2023/09/18 04:40:48;;;;;;;5.37;3.50;;;;;;;18.65;100.00;100214.31;5015057;28;20070;-81
2023/09/18 04:43:14;;;;;;;4.00;3.17;;;;;;;18.67;100.00;100211.56;5013894;28;20129;-81
2023/09/18 04:45:39;;;;;;;4.03;3.10;;;;;;;18.66;100.00;100199.38;5015186;28;20044;-81
2023/09/18 04:48:05;;;;;;;4.10;2.97;;;;;;;18.63;100.00;100165.41;5014849;28;20029;-81
2023/09/18 04:50:31;;;;;;;3.97;2.90;;;;;;;18.63;100.00;100168.84;5014457;28;20447;-81
2023/09/18 04:52:57;;;;;;;3.28;2.90;;;;;;;18.63;100.00;100168.03;5015023;28;20026;-81
2023/09/18 04:55:23;;;;;;;2.80;2.50;;;;;;;18.60;100.00;100161.16;5014834;28;20498;-81
2023/09/18 04:57:48;;;;;;;2.53;2.33;;;;;;;18.60;100.00;100163.78;5014702;28;20364;-82
2023/09/18 05:00:14;;;;;;;2.40;2.20;;;;;;;18.60;100.00;100163.78;5015374;28;20060;-81
2023/09/18 05:02:40;;;;;;;2.30;2.10;;;;;;;18.57;100.00;100164.00;5014729;28;20110;-81
2023/09/18 05:05:06;;;;;;;2.10;2.00;;;;;;;18.54;100.00;100169.41;5014029;28;20062;-81
2023/09/18 05:07:32;;;;;;;2.20;1.98;;;;;;;18.52;100.00;100161.59;5015125;28;20773;-81
2023/09/18 05:09:58;;;;;;;1.92;1.77;;;;;;;18.50;100.00;100153.00;5014470;28;20029;-81
2023/09/18 05:12:23;;;;;;;4.23;2.60;;;;;;;18.50;100.00;100158.25;5013979;28;20026;-81
2023/09/18 05:14:48;;;;;;;4.03;2.70;;;;;;;18.48;100.00;100161.88;5015837;28;20084;-81
2023/09/18 05:17:15;;;;;;;3.10;2.70;;;;;;;18.49;100.00;100171.47;5014545;28;20589;-81
2023/09/18 05:19:41;;;;;;;2.50;2.30;;;;;;;18.47;100.00;100175.94;5014190;28;20038;-81
2023/09/18 05:22:07;;;;;;;3.53;2.90;;;;;;;18.44;100.00;100165.66;5014542;28;20103;-81
2023/09/18 05:24:33;;;;;;;4.00;3.00;;;;;;;18.42;100.00;100176.22;5014542;28;20026;-81
2023/09/18 05:26:58;;;;;;;5.43;3.60;;;;;;;18.40;100.00;100179.88;5013912;28;20059;-81
2023/09/18 05:29:24;;;;;;;5.80;3.50;;;;;;;18.37;100.00;100187.00;5014397;28;20085;-81
2023/09/18 05:31:49;;;;;;;5.80;3.40;;;;;;;18.33;100.00;100187.28;5014095;28;20030;-81
2023/09/18 05:34:15;;;;;;;5.20;3.40;;;;;;;18.30;100.00;100185.69;5013456;28;20022;-81
2023/09/18 05:36:40;;;;;;;4.77;3.10;;;;;;;18.29;100.00;100183.16;5014600;28;20455;-81
2023/09/18 05:39:09;;;;;;;4.67;3.33;;;;;;;18.26;100.00;100168.41;5013844;28;20072;-81
2023/09/18 05:41:35;;;;;;;5.32;2.95;;;;;;;18.29;100.00;100185.78;5013597;28;20022;-81
2023/09/18 05:44:03;;;;;;;3.83;3.00;;;;;;;18.28;100.00;100179.66;5014177;28;20026;-81
2023/09/18 05:46:29;;;;;;;4.30;2.65;;;;;;;18.29;100.00;100175.28;5013162;28;20030;-81
2023/09/18 05:48:56;;;;;;;3.57;2.50;;;;;;;18.27;100.00;100182.41;5014111;28;20521;-81
2023/09/18 05:51:22;;;;;;;3.50;2.50;;;;;;;18.27;100.00;100203.41;5014120;28;20397;-81
2023/09/18 05:53:47;;;;;;;4.60;2.63;;;;;;;18.26;100.00;100197.28;5013170;28;20051;-82
2023/09/18 05:56:14;;;;;;;4.37;2.60;;;;;;;18.26;100.00;100186.78;5013488;28;20541;-81
2023/09/18 05:58:39;;;;;;;4.47;2.65;;;;;;;18.28;100.00;100199.84;5013948;28;20030;-82
2023/09/18 06:01:05;;;;;;;4.40;2.37;;;;;;;18.26;100.00;100204.34;5013297;28;20018;-81
2023/09/18 06:03:35;;;;;;;4.57;2.60;;;;;;;18.26;100.00;100199.91;5014205;28;20044;-82
2023/09/18 06:06:01;;;;;;;2.80;2.28;;;;;;;18.27;100.00;100199.00;5013992;28;20018;-81
2023/09/18 06:08:30;;;;;;;2.92;2.17;;;;;;;18.27;100.00;100212.13;5012435;28;20034;-82
2023/09/18 06:10:56;;;;;;;2.53;2.30;;;;;;;18.25;100.00;100215.78;5013787;28;20057;-83
2023/09/18 06:13:22;;;;;;;2.87;2.27;;;;;;;18.24;100.00;100222.78;5013464;28;20053;-83
2023/09/18 06:15:47;;;;;;;2.50;2.08;;;;;;;18.23;100.00;100231.63;5013225;28;20381;-83
2023/09/18 06:18:13;;;;;;;2.73;2.10;;;;;;;18.20;100.00;100229.19;5013525;28;20030;-84
2023/09/18 06:20:39;;;;;;;3.90;2.00;;;;;;;18.18;100.00;100220.53;5013560;28;20100;-84
2023/09/18 06:23:05;;;;;;;2.92;2.00;;;;;;;18.19;100.00;100227.47;5012460;28;20033;-82
2023/09/18 06:25:31;;;;;;;3.37;2.30;;;;;;;18.17;100.00;100218.84;5014664;28;20383;-84
2023/09/18 06:27:56;;;;;;;2.15;1.95;;;;;;;18.15;100.00;100224.19;5013539;28;20038;-82
2023/09/18 06:30:22;;;;;;;2.53;2.10;;;;;;;18.16;100.00;100232.91;5012469;28;20382;-85
2023/09/18 06:32:47;;;;;;;2.57;2.10;;;;;;;18.14;100.00;100240.00;5013376;28;20083;-84
2023/09/18 06:35:13;;;;;;;2.20;1.90;;;;;;;18.15;100.00;100236.47;5013205;28;20029;-82
2023/09/18 06:37:41;;;;;;;3.20;2.23;;;;;;;18.15;100.00;100231.19;5012135;28;20448;-85
2023/09/18 06:40:07;;;;;;;2.92;1.98;;;;;;;18.15;100.00;100241.72;5012722;28;20042;-85
2023/09/18 06:42:32;;;;;;;1.90;1.80;;;;;;;18.13;100.00;100248.81;5011822;28;20026;-84
2023/09/18 06:44:58;;;;;;;3.40;1.90;;;;;;;18.16;100.00;100254.78;5012802;28;20025;-85
2023/09/18 06:47:26;;;;;;;2.10;1.90;;;;;;;18.18;100.00;100246.78;5013005;28;20084;-85
2023/09/18 06:49:51;;;;;;;2.30;2.00;;;;;;;18.19;100.00;100244.06;5012275;28;20037;-85
2023/09/18 06:52:16;;;;;;;1.73;1.63;;;;;;;18.24;100.00;100248.22;5012812;28;20030;-85
2023/09/18 06:54:43;;;;;;;1.93;1.80;;;;;;;18.26;100.00;100265.59;5013144;28;20418;-85
2023/09/18 06:57:09;;;;;;;2.00;1.80;;;;;;;18.31;100.00;100262.69;5012411;28;20402;-85
2023/09/18 06:59:35;;;;;;;2.42;2.00;;;;;;;18.34;100.00;100273.91;5012671;28;20025;-85
2023/09/18 07:02:01;;;;;;;2.53;1.90;;;;;;;18.41;100.00;100271.72;5013196;28;20030;-85
2023/09/18 07:04:32;;;;;;;2.75;1.92;;;;;;;18.42;100.00;100270.81;5011672;28;20068;-85
2023/09/18 07:06:57;;;;;;;2.78;2.05;;;;;;;18.44;100.00;100274.19;5011751;28;20057;-84
2023/09/18 07:09:24;;;;;;;3.23;2.10;;;;;;;18.48;100.00;100261.72;5012216;28;20658;-85
2023/09/18 07:11:50;;;;;;;;;;;;;;;18.49;100.00;100271.31;5012181;28;20033;-85
2023/09/18 07:14:15;;;;;;;;;;;;;;;18.49;100.00;100277.41;5012418;28;19972;-84
2023/09/18 07:16:41;;;;;;;3.20;1.90;;;;;;;18.50;100.00;100280.88;5012680;28;19917;-83
2023/09/18 07:19:06;;;;;;;2.50;1.83;;;;;;;18.53;100.00;100275.44;5011967;28;20055;-89
2023/09/18 07:21:32;;;;;;;2.50;1.83;;;;;;;18.51;100.00;100270.28;5012872;28;20077;-80
2023/09/18 07:23:57;;;;;;;2.70;1.83;;;;;;;18.50;100.00;100279.13;5013093;28;20030;-80
2023/09/18 07:26:22;;;;;;;3.23;1.90;;;;;;;18.53;100.00;100283.34;5011803;28;20048;-84
2023/09/18 07:28:48;;;;;;;4.17;2.00;;;;;;;18.50;100.00;100280.88;5012380;28;20371;-86
2023/09/18 07:31:14;;;;;;;2.03;1.83;;;;;;;18.53;100.00;100276.28;5012536;28;20034;-83
2023/09/18 07:33:40;;;;;;;3.65;2.25;;;;;;;18.56;100.00;100285.78;5011749;28;20030;-79
2023/09/18 07:36:05;;;;;;;2.97;1.90;;;;;;;18.57;100.00;100287.50;5012538;28;20371;-79
2023/09/18 07:38:31;;;;;;;3.03;1.80;;;;;;;18.62;100.00;100280.16;5012392;28;20022;-79
2023/09/18 07:40:56;;;;;;;2.73;1.70;;;;;;;18.65;100.00;100295.78;5011955;28;20033;-79
2023/09/18 07:43:22;;;;;;;2.77;1.97;;;;;;;18.65;100.00;100298.41;5012718;28;20036;-90
2023/09/18 07:45:49;;;;;;;2.57;1.93;;;;;;;18.71;100.00;100296.34;5012889;28;20030;-88
2023/09/18 07:48:17;;;;;;;2.55;1.80;;;;;;;18.74;100.00;100285.66;5010818;28;20030;-85
2023/09/18 07:50:44;;;;;;;2.17;1.90;;;;;;;18.72;100.00;100291.00;5012838;28;20030;-81
2023/09/18 07:53:09;;;;;;;4.85;2.05;;;;;;;18.77;100.00;100290.72;5011698;28;20108;-80
2023/09/18 07:55:37;;;;;;;2.20;1.90;;;;;;;18.80;100.00;100296.66;5015489;28;20487;-82
2023/09/18 07:58:04;;;;;;;2.40;1.88;;;;;;;18.86;100.00;100297.25;5015880;28;20022;-82
2023/09/18 08:00:30;;;;;;;1.70;1.60;;;;;;;18.87;100.00;100291.88;5015310;28;20026;-82
2023/09/18 08:03:00;;;;;;;1.80;1.63;;;;;;;18.92;100.00;100291.59;5015870;28;20394;-83
2023/09/18 08:05:29;;;;;;;2.00;1.80;;;;;;;18.87;100.00;100280.50;5015757;28;20018;-83
2023/09/18 08:07:59;;;;;;;2.22;1.83;;;;;;;18.90;100.00;100289.09;5014946;28;20406;-83
2023/09/18 08:10:25;;;;;;;2.15;1.90;;;;;;;18.92;100.00;100288.97;5015620;28;20119;-83
2023/09/18 08:12:52;;;;;;;1.75;1.65;;;;;;;18.94;100.00;100301.13;5015781;28;20033;-83
2023/09/18 08:15:19;;;;;;;3.25;1.80;;;;;;;18.95;100.00;100300.19;5014722;28;20030;-81
2023/09/18 08:17:46;;;;;;;2.05;1.85;;;;;;;18.97;100.00;100298.31;5015605;28;20026;-83
2023/09/18 08:20:12;;;;;;;2.25;1.85;;;;;;;18.98;100.00;100297.38;5014804;28;20521;-81
2023/09/18 08:22:39;;;;;;;1.65;1.55;;;;;;;19.02;100.00;100298.03;5014591;28;20032;-81
2023/09/18 08:25:10;;;;;;;2.03;1.73;;;;;;;19.06;100.00;100302.19;5015391;28;20108;-83
2023/09/18 08:27:37;;;;;;;1.90;1.50;;;;;;;19.23;100.00;100309.06;5015593;28;20379;-82
2023/09/18 08:30:03;;;;;;;2.13;1.70;;;;;;;19.33;100.00;100308.50;5014351;28;20121;-84
2023/09/18 08:32:30;;;;;;;2.13;1.93;;;;;;;19.44;100.00;100311.34;5014642;28;20093;-83
2023/09/18 08:34:55;;;;;;;2.65;2.00;;;;;;;19.54;100.00;100314.22;5014857;28;20033;-83
2023/09/18 08:37:20;;;;;;;3.43;2.00;;;;;;;19.61;100.00;100334.00;5014268;28;20032;-82
2023/09/18 08:39:46;;;;;;;4.47;2.20;;;;;;;19.54;100.00;100333.50;5015292;28;20109;-83
2023/09/18 08:42:12;;;;;;;3.03;1.80;;;;;;;19.54;100.00;100332.66;5014667;28;20421;-81
2023/09/18 08:44:40;;;;;;;2.10;1.88;;;;;;;19.59;100.00;100333.22;5015126;28;20454;-81
2023/09/18 08:47:08;;;;;;;3.55;2.08;;;;;;;19.57;100.00;100340.38;5033119;22;20057;-83
2023/09/18 08:49:34;;;;;;;3.90;1.90;;;;;;;19.56;100.00;100342.16;5033547;28;20034;-82
2023/09/18 08:52:01;;;;;;;4.10;2.10;;;;;;;19.64;100.00;100335.56;5015467;28;20117;-82
2023/09/18 08:54:28;;;;;;;2.03;1.83;;;;;;;19.70;100.00;100338.69;5027539;28;20022;-81
2023/09/18 08:56:54;;;;;;;2.50;1.90;;;;;;;19.78;100.00;100338.22;5033810;28;20096;-81
2023/09/18 08:59:22;;;;;;;4.20;2.13;;;;;;;19.78;100.00;100332.94;5034660;28;20124;-82
2023/09/18 09:01:47;;;;;;;2.28;1.80;;;;;;;19.82;100.00;100337.06;5034862;28;20478;-82
2023/09/18 09:04:12;;;;;;;2.87;2.10;;;;;;;19.96;100.00;100330.13;5031979;28;20033;-82
2023/09/18 09:06:38;;;;;;;3.20;1.93;;;;;;;19.97;100.00;100339.72;5033961;28;20029;-83
2023/09/18 09:09:03;;;;;;;1.93;1.77;;;;;;;20.09;99.13;100332.84;5034521;28;20604;-83
2023/09/18 09:11:29;;;;;;;2.70;1.87;;;;;;;20.31;99.01;100334.94;5033882;28;20022;-83
2023/09/18 09:14:15;;;;;;;2.08;1.85;;;;;;;20.50;98.00;100337.22;5034674;28;20037;-82
2023/09/18 09:16:41;;;;;;;;;;;;;;;20.68;98.24;100340.44;5035293;28;20127;-82
2023/09/18 09:19:07;;;;;;;;;;;;;;;20.84;96.69;100350.84;5034040;28;20301;-83
2023/09/18 09:21:41;;;;;;;4.50;2.20;;;;;;;21.02;96.19;100354.06;5034695;28;19952;-83
2023/09/18 09:24:07;;;;;;;3.55;2.20;;;;;;;21.13;95.07;100358.59;5034275;28;20033;-83
2023/09/18 09:26:32;;;;;;;4.20;2.43;;;;;;;21.14;92.34;100362.94;5033501;28;20033;-84
2023/09/18 09:29:15;;;;;;;4.00;2.60;;;;;;;21.03;91.47;100368.94;5034393;28;20533;-84
2023/09/18 09:31:40;;;;;;;8.55;2.90;;;;;;;21.02;90.50;100369.88;5033016;28;20022;-83
2023/09/18 09:34:05;;;;;;;3.33;2.50;;;;;;;20.97;91.55;100371.97;5016770;28;20076;-83
2023/09/18 09:36:33;;;;;;;4.10;2.57;;;;;;;20.94;91.61;100370.41;5014434;28;20408;-84
2023/09/18 09:38:58;;;;;;;4.28;2.35;;;;;;;20.96;93.16;100368.50;5013815;28;20545;-83
2023/09/18 09:41:25;;;;;;;5.23;2.43;;;;;;;21.04;93.21;100370.63;5014333;28;20034;-84
2023/09/18 09:43:51;;;;;;;4.57;2.67;;;;;;;21.04;91.84;100378.56;5014308;28;20467;-84
2023/09/18 09:46:18;;;;;;;4.07;2.63;;;;;;;21.01;92.25;100376.09;5013139;28;20050;-84
2023/09/18 09:49:06;;;;;;;2.83;2.38;;;;;;;21.01;93.88;100362.06;5013954;28;20022;-84
2023/09/18 09:51:32;;;;;;;6.65;2.50;;;;;;;20.98;89.50;100363.97;5014902;28;20390;-84
2023/09/18 09:54:00;;;;;;;3.97;2.40;;;;;;;21.00;91.74;100352.47;5014025;28;20054;-84
2023/09/18 09:56:47;;;;;;;3.72;2.28;;;;;;;21.01;90.43;100362.06;5013801;28;20382;-84
2023/09/18 09:59:15;;;;;;;4.28;2.50;;;;;;;21.00;91.98;100355.94;5013881;28;20490;-83
2023/09/18 10:01:40;;;;;;;4.43;2.22;;;;;;;21.00;91.79;100360.41;5013391;28;20501;-83
2023/09/18 10:04:11;;;;;;;3.97;2.60;;;;;;;20.97;91.44;100369.34;5014089;28;20017;-84
2023/09/18 10:06:37;;;;;;;2.30;2.10;;;;;;;20.99;92.37;100370.09;5013613;28;20053;-84
2023/09/18 10:09:07;;;;;;;2.97;2.25;;;;;;;20.98;92.91;100382.44;5014032;28;20108;-84
2023/09/18 10:11:36;;;;;;;2.53;1.90;;;;;;;20.97;93.09;100386.03;5014409;28;20065;-84
2023/09/18 10:14:10;;;;;;;4.22;2.40;;;;;;;20.96;91.85;100391.38;5012901;28;20479;-84
2023/09/18 10:16:39;;;;;;;3.25;2.15;;;;;;;20.99;92.07;100396.47;5014370;28;20029;-84
2023/09/18 10:19:28;;;;;;;2.50;1.80;;;;;;;21.06;93.58;100397.72;5013754;28;20025;-83
2023/09/18 10:22:16;;;;;;;4.32;1.90;;;;;;;21.13;93.65;100387.63;5012973;28;20026;-83
2023/09/18 10:24:47;;;;;;;2.67;1.92;;;;;;;21.15;92.83;100383.09;5013903;28;20026;-84
2023/09/18 10:27:14;;;;;;;3.05;2.00;;;;;;;21.40;93.47;100374.34;5017391;28;20029;-81
2023/09/18 10:29:41;;;;;;;4.13;2.17;;;;;;;21.68;87.84;100376.91;5023911;28;20056;-82
2023/09/18 10:32:07;;;;;;;3.08;2.40;;;;;;;21.93;91.15;100386.63;5019993;28;20025;-83
2023/09/18 10:34:34;;;;;;;3.45;2.40;;;;;;;22.18;87.41;100384.88;5028007;28;20045;-85
2023/09/18 10:37:07;;;;;;;3.13;2.25;;;;;;;22.31;86.53;100384.84;5031939;28;20033;-87
2023/09/18 10:39:39;;;;;;;3.88;2.58;;;;;;;22.42;86.88;100392.84;5025019;22;20042;-77
2023/09/18 10:42:07;;;;;;;5.57;2.70;;;;;;;22.49;84.01;100387.97;4993932;28;20031;-86
2023/09/18 10:44:33;;;;;;;4.15;2.50;;;;;;;22.57;84.73;100385.59;4993874;28;20029;-83
2023/09/18 10:47:00;;;;;;;3.25;2.40;;;;;;;22.50;84.64;100394.94;4993792;28;20026;-83
2023/09/18 10:49:26;;;;;;;4.18;2.47;;;;;;;22.28;82.87;100385.91;5004030;28;20034;-83
2023/09/18 10:51:55;;;;;;;3.75;2.30;;;;;;;22.15;86.63;100390.38;5013066;28;20049;-83
2023/09/18 10:54:24;;;;;;;3.60;2.58;;;;;;;22.01;82.97;100381.63;5012970;28;20101;-84
2023/09/18 10:56:51;;;;;;;2.60;2.40;;;;;;;21.95;85.63;100382.06;5012416;28;20026;-83
2023/09/18 10:59:20;;;;;;;4.68;2.70;;;;;;;21.89;85.07;100382.50;5012731;28;20029;-83
2023/09/18 11:01:47;;;;;;;3.45;2.70;;;;;;;21.86;86.23;100380.91;5086680;22;20454;-83
2023/09/18 11:04:14;;;;;;;4.15;2.70;;;;;;;21.93;86.57;100369.91;5011705;28;20045;-83
2023/09/18 11:06:54;;;;;;;2.38;2.10;;;;;;;21.96;84.95;100381.09;5013233;28;20028;-83
2023/09/18 11:09:22;;;;;;;3.08;2.50;;;;;;;21.98;86.50;100379.19;5000797;28;20046;-84
2023/09/18 11:12:03;;;;;;;3.45;2.60;;;;;;;21.98;85.14;100386.28;4992615;28;20022;-87
2023/09/18 11:14:56;;;;;;;2.85;2.38;;;;;;;21.96;85.45;100386.38;4993163;28;20037;-87
2023/09/18 11:17:36;;;;;;;4.13;2.45;;;;;;;21.98;83.27;100381.00;4992420;28;20033;-85
2023/09/18 11:20:08;;;;;;;3.50;2.60;;;;;;;22.05;85.31;100375.19;4993778;28;20054;-87